Time;durP1;ratioP1;P1;durP2;ratioP2;P2;SDS_P1;SDS_P2;PMS_P1;PMS_P2;Temp;Humidity;BMP_temperature;BMP_pressure;BME280_temperature;BME280_humidity;BME280_pressure;Samples;Min_cycle;Max_cycle;Signal;HPM_P1;HPM_P2
2022/06/20 00:01:23;;;;;;;3.80;0.98;;;10.80;99.90;;;;;;4932299;29;20398;-82
2022/06/20 00:03:52;;;;;;;3.00;0.90;;;10.80;99.90;;;;;;4930309;29;20869;-82
2022/06/20 00:06:22;;;;;;;3.43;1.10;;;10.80;99.90;;;;;;4931583;29;20900;-83
2022/06/20 00:08:51;;;;;;;4.38;1.30;;;10.70;99.90;;;;;;4945649;29;20458;-82
2022/06/20 00:11:27;;;;;;;1.55;1.00;;;10.70;99.90;;;;;;4945963;29;20398;-82
2022/06/20 00:13:56;;;;;;;3.92;1.10;;;10.70;99.90;;;;;;4938572;29;20402;-83
2022/06/20 00:16:24;;;;;;;4.47;1.20;;;10.70;99.90;;;;;;4949076;29;20397;-83
2022/06/20 00:18:53;;;;;;;2.92;1.00;;;10.60;99.90;;;;;;4945524;28;20466;-82
2022/06/20 00:21:22;;;;;;;4.10;1.20;;;10.60;99.90;;;;;;4934595;28;20406;-82
2022/06/20 00:23:50;;;;;;;3.40;1.10;;;10.50;99.90;;;;;;4939762;28;20401;-83
2022/06/20 00:26:18;;;;;;;4.23;1.20;;;10.50;99.90;;;;;;4930975;29;20401;-83
2022/06/20 00:28:46;;;;;;;5.20;1.30;;;10.50;99.90;;;;;;4931249;29;20844;-81
2022/06/20 00:31:14;;;;;;;3.58;1.20;;;10.40;99.90;;;;;;4931300;29;20412;-82
2022/06/20 00:33:42;;;;;;;4.38;1.48;;;10.40;99.90;;;;;;4940250;29;20408;-83
2022/06/20 00:36:10;;;;;;;3.67;1.33;;;10.40;99.90;;;;;;4945507;29;20402;-83
2022/06/20 00:38:37;;;;;;;5.15;1.50;;;10.30;99.90;;;;;;4929915;29;20456;-82
2022/06/20 00:41:10;;;;;;;7.18;1.80;;;10.30;99.90;;;;;;4929710;28;20978;-83
2022/06/20 00:43:45;;;;;;;5.88;1.50;;;10.30;99.90;;;;;;4944797;29;20402;-82
2022/06/20 00:46:38;;;;;;;3.87;1.40;;;10.30;99.90;;;;;;4936263;28;20394;-83
2022/06/20 00:49:14;;;;;;;4.00;1.25;;;10.30;99.90;;;;;;4948584;28;20416;-82
2022/06/20 00:52:02;;;;;;;5.38;1.40;;;10.30;99.90;;;;;;4930254;29;20456;-84
2022/06/20 00:54:43;;;;;;;4.57;1.50;;;10.10;99.90;;;;;;4944707;28;20417;-84
2022/06/20 00:57:14;;;;;;;5.53;1.67;;;10.10;99.90;;;;;;4941725;29;20440;-85
2022/06/20 00:59:49;;;;;;;5.95;1.90;;;10.10;99.90;;;;;;4938583;29;20848;-84
2022/06/20 01:02:26;;;;;;;7.07;1.88;;;10.10;99.90;;;;;;4942135;29;20413;-84
2022/06/20 01:05:01;;;;;;;5.05;1.80;;;10.20;99.90;;;;;;4941253;29;20394;-85
2022/06/20 01:07:58;;;;;;;6.03;1.83;;;10.20;99.90;;;;;;4937674;29;20388;-85
2022/06/20 01:10:27;;;;;;;3.85;1.85;;;10.20;99.90;;;;;;4951477;29;20497;-86
2022/06/20 01:13:00;;;;;;;8.93;1.85;;;10.20;99.90;;;;;;4952444;28;20883;-84
2022/06/20 01:15:37;;;;;;;4.43;1.90;;;10.20;99.90;;;;;;4947729;28;20405;-85
2022/06/20 01:18:12;;;;;;;6.15;2.00;;;10.10;99.90;;;;;;4933882;29;20394;-84
2022/06/20 01:20:42;;;;;;;4.57;1.85;;;10.10;99.90;;;;;;4933827;29;20877;-84
2022/06/20 01:23:31;;;;;;;5.50;1.80;;;10.20;99.90;;;;;;4937903;28;20666;-83
2022/06/20 01:26:36;;;;;;;5.85;1.92;;;10.20;99.90;;;;;;4949610;29;20396;-85
2022/06/20 01:29:10;;;;;;;6.27;1.90;;;10.20;99.90;;;;;;4933678;29;20413;-85
2022/06/20 01:31:43;;;;;;;7.05;1.95;;;10.20;99.90;;;;;;4932515;29;20898;-85
2022/06/20 01:34:14;;;;;;;7.55;2.13;;;10.20;99.90;;;;;;4943944;28;20453;-85
2022/06/20 01:39:36;;;;;;;7.05;1.90;;;10.20;99.90;;;;;;4933645;29;20410;-84
2022/06/20 01:42:20;;;;;;;6.20;1.92;;;10.20;99.90;;;;;;4940907;29;20409;-86
2022/06/20 01:48:19;;;;;;;6.57;2.15;;;10.20;99.90;;;;;;4944942;28;20432;-84
2022/06/20 01:50:47;;;;;;;5.05;2.30;;;10.30;99.90;;;;;;4952307;28;20408;-84
2022/06/20 01:53:18;;;;;;;6.90;2.10;;;10.30;99.90;;;;;;4952502;28;20396;-84
2022/06/20 01:55:49;;;;;;;5.95;2.03;;;10.20;99.90;;;;;;4951093;29;20435;-83
2022/06/20 01:58:30;;;;;;;6.07;2.00;;;10.30;99.90;;;;;;4938492;28;20780;-85
2022/06/20 02:01:00;;;;;;;8.20;2.35;;;10.20;99.90;;;;;;4950998;29;20446;-85
2022/06/20 02:03:33;;;;;;;6.37;2.30;;;10.30;99.90;;;;;;4951049;29;20454;-86
2022/06/20 02:06:02;;;;;;;7.53;2.30;;;10.20;99.90;;;;;;4950362;28;20408;-85
2022/06/20 02:08:31;;;;;;;7.80;2.23;;;10.20;99.90;;;;;;4952145;28;20887;-84
2022/06/20 02:11:03;;;;;;;6.38;2.15;;;10.20;99.90;;;;;;4936545;29;20396;-85
2022/06/20 02:13:36;;;;;;;4.40;2.00;;;10.20;99.90;;;;;;4944456;28;20399;-85
2022/06/20 02:16:07;;;;;;;5.63;2.00;;;10.20;99.90;;;;;;4931875;28;20400;-85
2022/06/20 02:18:41;;;;;;;5.38;1.88;;;10.20;99.90;;;;;;4945085;29;20421;-85
2022/06/20 02:21:15;;;;;;;5.43;2.00;;;10.30;99.90;;;;;;4951647;28;20408;-84
2022/06/20 02:23:47;;;;;;;6.15;1.90;;;10.30;99.90;;;;;;4951903;28;20393;-86
2022/06/20 02:26:17;;;;;;;5.72;2.10;;;10.30;99.90;;;;;;4952042;28;20397;-83
2022/06/20 02:29:08;;;;;;;6.28;2.28;;;10.40;99.90;;;;;;4946059;28;20412;-85
2022/06/20 02:31:37;;;;;;;4.43;1.88;;;10.40;99.90;;;;;;4936782;29;20405;-86
2022/06/20 02:34:04;;;;;;;5.00;1.90;;;10.30;99.90;;;;;;4934896;29;20397;-86
2022/06/20 02:36:33;;;;;;;8.02;2.28;;;10.30;99.90;;;;;;4934453;28;20393;-85
2022/06/20 02:39:00;;;;;;;4.75;2.20;;;10.30;99.90;;;;;;4951163;29;20412;-84
2022/06/20 02:41:29;;;;;;;6.00;2.30;;;10.20;99.90;;;;;;4950419;29;20814;-83
2022/06/20 02:44:12;;;;;;;6.95;2.90;;;10.00;99.90;;;;;;4950556;28;20397;-86
2022/06/20 02:46:41;;;;;;;8.10;2.80;;;10.10;99.90;;;;;;4951396;28;20393;-85
2022/06/20 02:49:10;;;;;;;7.95;3.35;;;10.20;99.90;;;;;;4945870;28;20414;-84
2022/06/20 02:51:41;;;;;;;7.15;3.00;;;10.20;99.90;;;;;;4941015;29;20396;-84
2022/06/20 02:54:13;;;;;;;5.97;2.80;;;10.20;99.90;;;;;;4951434;28;20450;-84
2022/06/20 02:56:54;;;;;;;7.78;2.90;;;10.30;99.90;;;;;;4949051;29;20401;-84
2022/06/20 02:59:28;;;;;;;7.63;3.50;;;10.40;99.90;;;;;;4938843;29;20423;-84
2022/06/20 03:02:02;;;;;;;8.80;4.43;;;10.30;99.90;;;;;;4950067;28;20400;-85
2022/06/20 03:04:34;;;;;;;9.10;4.55;;;10.00;99.90;;;;;;4951156;29;20416;-84
2022/06/20 03:07:12;;;;;;;7.03;2.83;;;10.20;99.90;;;;;;4947222;28;20391;-84
2022/06/20 03:09:42;;;;;;;5.03;2.67;;;10.30;99.90;;;;;;4949027;29;20404;-85
2022/06/20 03:12:11;;;;;;;8.50;2.78;;;10.40;99.90;;;;;;4937400;28;20485;-85
2022/06/20 03:14:46;;;;;;;7.22;2.70;;;10.40;99.90;;;;;;4932334;29;20481;-84
2022/06/20 03:17:17;;;;;;;9.68;3.38;;;10.40;99.90;;;;;;4946590;28;20425;-85
2022/06/20 03:19:48;;;;;;;9.90;3.63;;;10.50;99.90;;;;;;4937355;29;20414;-85
2022/06/20 03:22:22;;;;;;;7.55;3.63;;;10.50;99.90;;;;;;4946480;29;20406;-84
2022/06/20 03:24:52;;;;;;;7.82;4.20;;;10.50;99.90;;;;;;4949655;29;20503;-83
2022/06/20 03:27:27;;;;;;;8.02;3.88;;;10.50;99.90;;;;;;4946591;29;20489;-85
2022/06/20 03:30:00;;;;;;;6.75;4.10;;;10.50;99.90;;;;;;4932103;29;20817;-85
2022/06/20 03:32:28;;;;;;;7.93;4.00;;;10.40;99.90;;;;;;4930846;29;20441;-86
2022/06/20 03:34:55;;;;;;;6.90;4.03;;;10.50;99.90;;;;;;4934942;29;20419;-85
2022/06/20 03:37:23;;;;;;;6.72;4.10;;;10.50;99.90;;;;;;4949815;29;20403;-85
2022/06/20 03:39:51;;;;;;;9.27;4.50;;;10.60;99.90;;;;;;4950742;28;20408;-85
2022/06/20 03:42:20;;;;;;;8.82;4.80;;;10.50;99.90;;;;;;4949546;28;20409;-83
2022/06/20 03:44:55;;;;;;;7.18;4.80;;;10.50;99.90;;;;;;4950510;28;20427;-85
2022/06/20 03:47:38;;;;;;;8.32;4.53;;;10.50;99.90;;;;;;4933748;28;20905;-85
2022/06/20 03:50:32;;;;;;;9.77;5.30;;;10.50;99.90;;;;;;4950654;28;20404;-84
2022/06/20 03:53:29;;;;;;;9.68;4.90;;;10.50;99.90;;;;;;4946932;28;20398;-84
2022/06/20 03:56:46;;;;;;;11.20;4.72;;;10.60;99.90;;;;;;4938460;29;20441;-84
2022/06/20 03:59:24;;;;;;;9.15;3.53;;;10.70;99.90;;;;;;4937173;29;20420;-85
2022/06/20 04:02:19;;;;;;;10.45;3.65;;;10.60;99.90;;;;;;4947013;28;20416;-85
2022/06/20 04:05:15;;;;;;;11.75;3.15;;;10.60;99.90;;;;;;4953575;28;20495;-84
2022/06/20 04:07:53;;;;;;;8.93;3.20;;;10.60;99.90;;;;;;4931672;29;20394;-85
2022/06/20 04:13:40;;;;;;;7.13;2.87;;;10.60;99.90;;;;;;4945895;28;20406;-84
2022/06/20 04:16:14;;;;;;;7.43;2.95;;;10.60;99.90;;;;;;4942732;29;20402;-84
2022/06/20 04:18:52;;;;;;;10.85;3.97;;;10.70;99.90;;;;;;4946831;29;20409;-83
2022/06/20 04:21:37;;;;;;;10.60;4.53;;;10.60;99.90;;;;;;4949618;28;20774;-84
2022/06/20 04:24:27;;;;;;;10.25;4.65;;;10.60;99.90;;;;;;4950204;28;20893;-84
2022/06/20 04:27:37;;;;;;;7.80;3.63;;;10.60;99.90;;;;;;4949837;28;20411;-84
2022/06/20 04:30:33;;;;;;;10.25;3.83;;;10.70;99.90;;;;;;4957731;28;20478;-84
2022/06/20 04:33:13;;;;;;;9.00;4.10;;;10.70;99.90;;;;;;4941769;28;20423;-84
2022/06/20 04:36:01;;;;;;;11.70;3.88;;;10.50;99.90;;;;;;4943554;28;20505;-84
2022/06/20 04:38:37;;;;;;;8.35;3.83;;;10.70;99.90;;;;;;4933298;29;20390;-84
2022/06/20 04:41:17;;;;;;;11.40;4.38;;;10.60;99.90;;;;;;4939123;29;20415;-84
2022/06/20 04:43:58;;;;;;;10.07;4.40;;;10.60;99.90;;;;;;4949063;29;20964;-84
2022/06/20 04:46:33;;;;;;;9.47;4.03;;;10.70;99.90;;;;;;4934134;29;20870;-83
2022/06/20 04:49:02;;;;;;;10.55;4.15;;;10.60;99.90;;;;;;4937933;29;20891;-84
2022/06/20 04:51:37;;;;;;;8.70;4.13;;;10.60;99.90;;;;;;4952972;28;20458;-83
2022/06/20 04:54:08;;;;;;;10.87;4.37;;;10.50;99.90;;;;;;4951721;29;20491;-85
2022/06/20 04:56:35;;;;;;;10.73;4.10;;;10.70;99.90;;;;;;4951465;28;20396;-84
2022/06/20 04:59:06;;;;;;;11.60;4.27;;;10.70;99.90;;;;;;4951794;28;20396;-84
2022/06/20 05:01:36;;;;;;;11.45;4.28;;;10.80;99.90;;;;;;4951726;28;20426;-84
2022/06/20 05:04:14;;;;;;;11.73;3.92;;;10.70;99.90;;;;;;4952392;29;20392;-86
2022/06/20 05:06:42;;;;;;;13.00;4.30;;;10.80;99.90;;;;;;4950688;28;20475;-84
2022/06/20 05:09:23;;;;;;;10.07;3.83;;;10.70;99.90;;;;;;4938407;28;20818;-82
2022/06/20 05:12:01;;;;;;;10.00;3.58;;;10.80;99.90;;;;;;4963888;28;20608;-83
2022/06/20 05:14:40;;;;;;;12.02;4.35;;;10.80;99.90;;;;;;4947251;28;20757;-84
2022/06/20 05:17:17;;;;;;;12.20;3.83;;;10.80;99.90;;;;;;4932419;29;20395;-84
2022/06/20 05:19:48;;;;;;;11.30;3.40;;;10.90;99.90;;;;;;4932404;29;20436;-83
2022/06/20 05:22:22;;;;;;;11.90;3.45;;;10.90;99.90;;;;;;4932127;29;20410;-84
2022/06/20 05:24:55;;;;;;;11.68;3.50;;;10.90;99.90;;;;;;4950295;29;20416;-84
2022/06/20 05:27:30;;;;;;;12.07;3.35;;;10.90;99.90;;;;;;4951019;29;20396;-84
2022/06/20 05:30:00;;;;;;;11.10;3.65;;;10.90;99.90;;;;;;4950657;28;20435;-83
2022/06/20 05:32:44;;;;;;;9.52;3.55;;;10.80;99.90;;;;;;4948609;29;20748;-83
2022/06/20 05:35:36;;;;;;;10.55;2.90;;;10.80;99.90;;;;;;4933326;29;20803;-83
2022/06/20 05:38:21;;;;;;;7.28;2.70;;;10.80;99.90;;;;;;4933372;29;20413;-83
2022/06/20 05:40:55;;;;;;;9.68;3.13;;;10.90;99.90;;;;;;4933227;29;20410;-83
2022/06/20 05:43:30;;;;;;;10.65;3.40;;;10.90;99.90;;;;;;4935391;28;20457;-83
2022/06/20 05:46:05;;;;;;;11.32;2.95;;;10.80;99.90;;;;;;4950407;28;20415;-83
2022/06/20 05:49:04;;;;;;;13.07;3.28;;;10.90;99.90;;;;;;4941866;29;20392;-82
2022/06/20 05:51:36;;;;;;;8.45;2.70;;;11.00;99.90;;;;;;4942283;28;20497;-84
2022/06/20 05:54:18;;;;;;;10.37;2.90;;;10.90;99.90;;;;;;4936013;29;20433;-82
2022/06/20 05:57:14;;;;;;;9.38;2.67;;;10.90;99.90;;;;;;4930131;29;20398;-83
2022/06/20 05:59:41;;;;;;;10.05;2.83;;;11.00;99.90;;;;;;4948171;28;20492;-84
2022/06/20 06:02:43;;;;;;;11.45;2.75;;;11.10;99.90;;;;;;4933320;29;20398;-83
2022/06/20 06:05:17;;;;;;;12.60;2.72;;;11.00;99.90;;;;;;4937725;29;20903;-83
2022/06/20 06:08:20;;;;;;;9.98;2.25;;;11.10;99.90;;;;;;4950412;29;20396;-84
2022/06/20 06:11:33;;;;;;;9.23;2.40;;;11.10;99.90;;;;;;4951670;28;20462;-83
2022/06/20 06:14:40;;;;;;;9.15;3.08;;;11.10;99.90;;;;;;4935133;29;20410;-83
2022/06/20 06:17:32;;;;;;;10.57;2.47;;;11.10;99.90;;;;;;4932666;28;20410;-84
2022/06/20 06:20:17;;;;;;;10.93;2.72;;;11.10;99.90;;;;;;4931369;28;20437;-84
2022/06/20 06:22:49;;;;;;;9.27;2.50;;;11.20;99.90;;;;;;4934339;29;20390;-84
2022/06/20 06:25:41;;;;;;;9.93;2.42;;;11.30;99.90;;;;;;4955704;28;20398;-84
2022/06/20 06:28:12;;;;;;;8.25;2.33;;;11.30;99.90;;;;;;4953135;28;20402;-84
2022/06/20 06:30:48;;;;;;;10.88;2.80;;;11.30;99.90;;;;;;4948273;29;20887;-84
2022/06/20 06:33:25;;;;;;;7.83;2.50;;;11.30;99.90;;;;;;4931383;29;20413;-84
2022/06/20 06:36:04;;;;;;;8.65;1.92;;;11.40;99.90;;;;;;4934459;29;20435;-84
2022/06/20 06:38:45;;;;;;;8.93;2.30;;;11.30;99.90;;;;;;4954909;28;20391;-82
2022/06/20 06:41:22;;;;;;;6.60;2.30;;;11.40;99.90;;;;;;4949895;28;20413;-83
2022/06/20 06:43:51;;;;;;;9.63;2.22;;;11.40;99.90;;;;;;4951113;29;20682;-83
2022/06/20 06:46:25;;;;;;;9.82;2.53;;;11.40;99.90;;;;;;4951480;28;20396;-84
2022/06/20 06:49:19;;;;;;;7.68;2.22;;;11.50;99.90;;;;;;4950874;28;20393;-83
2022/06/20 06:51:59;;;;;;;8.10;1.98;;;11.50;99.90;;;;;;4949199;29;20969;-83
2022/06/20 06:54:55;;;;;;;10.07;2.50;;;11.50;99.90;;;;;;4934726;29;20402;-83
2022/06/20 06:57:22;;;;;;;8.00;2.30;;;11.50;99.90;;;;;;4918621;29;20401;-84
2022/06/20 07:00:03;;;;;;;9.20;2.45;;;11.50;99.90;;;;;;4937649;29;20406;-84
2022/06/20 07:02:58;;;;;;;8.38;2.35;;;11.60;99.90;;;;;;4930583;29;20402;-83
2022/06/20 07:05:34;;;;;;;7.33;2.20;;;11.60;99.90;;;;;;4938995;29;20385;-83
2022/06/20 07:08:19;;;;;;;10.37;2.57;;;11.60;99.90;;;;;;4949487;29;20778;-83
2022/06/20 07:11:02;;;;;;;6.20;2.05;;;11.60;99.90;;;;;;4950603;28;20434;-83
2022/06/20 07:13:50;;;;;;;6.57;2.20;;;11.60;99.90;;;;;;4950809;28;20407;-83
2022/06/20 07:16:26;;;;;;;8.57;2.35;;;11.60;99.90;;;;;;4949605;28;20397;-83
2022/06/20 07:18:56;;;;;;;11.27;2.80;;;11.70;99.90;;;;;;4949357;29;20400;-82
2022/06/20 07:21:27;;;;;;;10.52;2.65;;;11.70;99.90;;;;;;4949099;28;20776;-83
2022/06/20 07:24:06;;;;;;;9.88;2.50;;;11.80;99.90;;;;;;4950632;28;20423;-84
2022/06/20 07:26:45;;;;;;;8.45;2.22;;;11.90;99.90;;;;;;4949301;29;20396;-83
2022/06/20 07:29:46;;;;;;;11.40;2.45;;;11.90;99.90;;;;;;4932543;29;20510;-84
2022/06/20 07:32:20;;;;;;;9.65;2.38;;;11.90;99.90;;;;;;4946009;29;20424;-84
2022/06/20 07:35:01;;;;;;;7.82;2.20;;;11.80;99.90;;;;;;4947123;29;20486;-83
2022/06/20 07:37:38;;;;;;;8.45;2.22;;;11.90;99.90;;;;;;4949316;29;20477;-83
2022/06/20 07:40:13;;;;;;;8.77;2.28;;;11.90;99.90;;;;;;4950406;29;20466;-85
2022/06/20 07:42:52;;;;;;;8.57;2.00;;;12.00;99.90;;;;;;4949327;29;20958;-84
2022/06/20 07:45:34;;;;;;;6.53;2.30;;;11.90;99.90;;;;;;4950688;28;20428;-84
2022/06/20 07:48:09;;;;;;;4.78;1.90;;;12.00;99.90;;;;;;4933693;28;20423;-85
2022/06/20 07:50:38;;;;;;;8.88;2.33;;;12.00;99.90;;;;;;4949085;29;20450;-85
2022/06/20 07:53:17;;;;;;;9.88;2.40;;;12.10;99.90;;;;;;4949388;29;20403;-84
2022/06/20 07:55:49;;;;;;;8.07;1.90;;;12.10;99.90;;;;;;4950471;28;20484;-84
2022/06/20 07:58:28;;;;;;;10.32;2.10;;;12.30;99.90;;;;;;4949390;29;20819;-84
2022/06/20 08:01:00;;;;;;;8.67;1.83;;;12.30;99.90;;;;;;4950164;29;20408;-84
2022/06/20 08:03:42;;;;;;;6.07;1.95;;;12.40;99.90;;;;;;4950075;28;20858;-84
2022/06/20 08:06:37;;;;;;;7.87;2.10;;;12.50;99.90;;;;;;4952441;29;20454;-85
2022/06/20 08:09:28;;;;;;;8.68;2.17;;;12.40;99.90;;;;;;4934868;29;20940;-84
2022/06/20 08:12:03;;;;;;;7.25;2.08;;;12.60;99.90;;;;;;4941211;28;20761;-83
2022/06/20 08:14:44;;;;;;;8.63;2.38;;;12.80;99.90;;;;;;4948871;29;20444;-84
2022/06/20 08:17:12;;;;;;;7.27;2.10;;;12.80;99.90;;;;;;4953525;28;20400;-83
2022/06/20 08:19:43;;;;;;;7.60;2.28;;;12.70;99.90;;;;;;4952575;28;20495;-84
2022/06/20 08:22:25;;;;;;;7.85;2.28;;;12.70;99.90;;;;;;4948015;28;20452;-84
2022/06/20 08:25:31;;;;;;;8.57;1.92;;;12.50;99.90;;;;;;4945019;28;20773;-82
2022/06/20 08:28:18;;;;;;;7.20;2.20;;;12.50;99.90;;;;;;4939642;28;20413;-84
2022/06/20 08:30:49;;;;;;;6.27;1.80;;;12.60;99.90;;;;;;4957457;28;20412;-83
2022/06/20 08:33:27;;;;;;;8.35;1.95;;;12.70;99.90;;;;;;4942514;29;20404;-86
2022/06/20 08:36:11;;;;;;;11.93;2.53;;;12.60;99.90;;;;;;4948967;28;20487;-85
2022/06/20 08:39:03;;;;;;;6.00;2.17;;;12.70;99.90;;;;;;4941084;29;20455;-83
2022/06/20 08:42:08;;;;;;;6.38;1.88;;;12.70;99.90;;;;;;4951727;28;20414;-85
2022/06/20 08:45:03;;;;;;;6.68;1.90;;;12.70;99.90;;;;;;4938008;29;20405;-84
2022/06/20 08:47:37;;;;;;;9.83;2.40;;;12.80;99.90;;;;;;4939557;29;20446;-84
2022/06/20 08:50:31;;;;;;;7.78;2.15;;;12.90;99.90;;;;;;4937790;28;20759;-84
2022/06/20 08:53:50;;;;;;;8.50;2.50;;;13.10;99.90;;;;;;4937954;29;20466;-84
2022/06/20 08:56:41;;;;;;;7.43;2.10;;;13.10;99.90;;;;;;4950257;29;20444;-83
2022/06/20 08:59:33;;;;;;;8.93;2.35;;;13.10;99.90;;;;;;4978360;28;20761;-83
2022/06/20 09:02:09;;;;;;;6.30;2.08;;;13.00;99.90;;;;;;4950600;29;20914;-84
2022/06/20 09:05:01;;;;;;;10.00;2.65;;;13.10;99.90;;;;;;4951577;28;20384;-84
2022/06/20 09:07:31;;;;;;;7.13;2.10;;;13.20;99.90;;;;;;4950498;29;20883;-84
2022/06/20 09:10:36;;;;;;;6.07;2.38;;;13.50;99.90;;;;;;4951633;28;20732;-85
2022/06/20 09:13:10;;;;;;;7.22;2.03;;;13.50;99.90;;;;;;4951784;28;20397;-83
2022/06/20 09:15:50;;;;;;;7.13;1.65;;;13.60;99.90;;;;;;4949989;28;20755;-83
2022/06/20 09:18:57;;;;;;;7.30;2.10;;;13.60;99.90;;;;;;4951426;28;20396;-83
2022/06/20 09:22:11;;;;;;;7.63;2.08;;;13.70;99.90;;;;;;4873676;28;2258242;-83
2022/06/20 09:24:53;;;;;;;7.72;2.08;;;13.70;99.90;;;;;;4963185;28;20503;-84
2022/06/20 09:28:20;;;;;;;6.07;2.00;;;13.80;99.90;;;;;;4952500;28;20490;-85
2022/06/20 09:31:09;;;;;;;7.37;1.80;;;13.80;99.90;;;;;;5011052;28;20462;-84
2022/06/20 09:33:58;;;;;;;5.25;1.98;;;13.70;99.90;;;;;;4943960;28;20382;-84
2022/06/20 09:36:45;;;;;;;8.35;1.63;;;13.90;99.90;;;;;;4943871;29;20935;-84
2022/06/20 09:39:34;;;;;;;7.65;2.00;;;13.90;99.90;;;;;;4938686;29;20415;-84
2022/06/20 09:42:40;;;;;;;5.47;1.73;;;14.00;99.90;;;;;;4951145;29;20408;-84
2022/06/20 09:45:21;;;;;;;9.82;2.10;;;14.00;99.90;;;;;;4952311;28;20400;-84
2022/06/20 09:48:07;;;;;;;7.60;2.00;;;14.00;99.90;;;;;;4952122;28;20392;-84
2022/06/20 09:50:52;;;;;;;6.70;1.88;;;13.90;99.90;;;;;;4950846;29;20403;-83
2022/06/20 09:53:41;;;;;;;6.28;1.58;;;14.00;99.90;;;;;;4946468;28;20451;-84
2022/06/20 09:56:41;;;;;;;6.68;1.60;;;14.00;99.90;;;;;;4933380;29;20448;-83
2022/06/20 09:59:28;;;;;;;7.65;1.90;;;13.90;99.90;;;;;;4953236;28;20405;-84
2022/06/20 10:02:11;;;;;;;8.30;1.90;;;13.90;99.90;;;;;;4951728;28;20419;-84
2022/06/20 10:04:45;;;;;;;5.68;1.70;;;14.10;99.90;;;;;;4951630;28;20407;-84
2022/06/20 10:07:37;;;;;;;5.45;1.55;;;14.30;99.90;;;;;;4951866;28;20415;-84
2022/06/20 10:10:25;;;;;;;6.35;1.67;;;14.30;99.90;;;;;;4951831;28;20393;-83
2022/06/20 10:13:23;;;;;;;7.47;1.93;;;14.40;99.90;;;;;;4958803;28;20393;-84
2022/06/20 10:15:51;;;;;;;7.22;1.50;;;14.60;99.90;;;;;;4933155;29;20869;-85
2022/06/20 10:18:28;;;;;;;5.43;2.00;;;14.60;99.90;;;;;;4931450;29;20398;-84
2022/06/20 10:21:12;;;;;;;9.20;1.92;;;14.60;99.90;;;;;;4934490;29;20416;-85
2022/06/20 10:23:39;;;;;;;5.93;1.60;;;14.70;99.90;;;;;;4951685;28;20450;-85
2022/06/20 10:26:27;;;;;;;8.45;1.70;;;14.90;99.90;;;;;;4950607;28;20479;-85
2022/06/20 10:29:20;;;;;;;6.72;1.75;;;14.90;99.90;;;;;;4947135;29;20390;-84
2022/06/20 10:32:24;;;;;;;4.67;1.37;;;14.70;99.90;;;;;;4938193;29;20465;-83
2022/06/20 10:35:20;;;;;;;4.43;1.38;;;14.80;99.90;;;;;;4956632;28;20899;-85
2022/06/20 10:38:03;;;;;;;4.80;1.50;;;15.00;99.90;;;;;;4950310;28;20885;-85
2022/06/20 10:40:59;;;;;;;6.00;1.40;;;15.10;99.90;;;;;;4934205;28;20450;-84
2022/06/20 10:43:46;;;;;;;4.97;1.20;;;15.20;99.90;;;;;;4932517;29;20394;-84
2022/06/20 10:46:14;;;;;;;6.07;1.20;;;15.20;99.90;;;;;;4946858;29;20456;-83
2022/06/20 10:49:15;;;;;;;4.65;1.10;;;15.30;99.90;;;;;;4942252;28;20797;-83
2022/06/20 10:51:51;;;;;;;6.70;1.17;;;15.40;99.90;;;;;;4935936;29;20408;-83
2022/06/20 10:54:45;;;;;;;4.80;1.33;;;15.50;99.90;;;;;;4935802;29;20405;-83
2022/06/20 10:57:21;;;;;;;4.10;1.10;;;15.70;99.90;;;;;;4930795;29;20443;-82
2022/06/20 11:00:07;;;;;;;4.65;1.20;;;15.80;99.90;;;;;;4930987;29;20436;-84
2022/06/20 11:02:41;;;;;;;4.93;1.17;;;15.90;99.90;;;;;;4931327;29;20418;-83
2022/06/20 11:05:33;;;;;;;4.07;1.02;;;16.00;99.90;;;;;;4951003;28;20401;-83
2022/06/20 11:08:35;;;;;;;5.72;1.10;;;15.80;99.90;;;;;;4949687;29;20451;-82
2022/06/20 11:11:23;;;;;;;3.40;1.10;;;15.80;99.90;;;;;;4946345;28;20418;-81
2022/06/20 11:14:11;;;;;;;4.50;1.00;;;15.80;99.90;;;;;;4929991;28;20416;-82
2022/06/20 11:16:46;;;;;;;5.60;1.20;;;15.90;99.90;;;;;;4946423;29;20451;-83
2022/06/20 11:19:17;;;;;;;5.60;1.40;;;16.20;99.90;;;;;;4932913;29;20398;-83
2022/06/20 11:22:01;;;;;;;5.95;1.33;;;16.40;99.90;;;;;;4949351;28;20507;-82
2022/06/20 11:24:52;;;;;;;3.75;1.10;;;16.40;99.90;;;;;;4934158;29;20894;-82
2022/06/20 11:27:56;;;;;;;3.73;1.07;;;16.40;99.90;;;;;;4959467;28;20404;-83
2022/06/20 11:30:29;;;;;;;2.33;0.88;;;16.60;99.90;;;;;;4949638;29;20392;-83
2022/06/20 11:33:02;;;;;;;3.47;1.10;;;16.70;99.90;;;;;;4950861;29;20426;-82
2022/06/20 11:35:30;;;;;;;5.07;1.00;;;16.80;99.90;;;;;;4950595;29;20392;-83
2022/06/20 11:38:18;;;;;;;3.75;0.90;;;16.80;99.90;;;;;;4950408;28;20399;-83
2022/06/20 11:41:28;;;;;;;6.45;1.27;;;17.00;99.90;;;;;;4948986;29;20432;-83
2022/06/20 11:44:14;;;;;;;4.75;1.10;;;16.90;99.90;;;;;;4976831;28;20464;-83
2022/06/20 11:47:01;;;;;;;4.32;1.10;;;16.90;99.90;;;;;;4949215;29;20453;-82
2022/06/20 11:49:35;;;;;;;3.97;0.97;;;17.00;99.90;;;;;;4949428;29;20403;-83
2022/06/20 11:52:25;;;;;;;4.85;1.00;;;17.20;99.90;;;;;;4950041;28;20404;-83
2022/06/20 11:55:26;;;;;;;3.38;0.90;;;17.20;99.90;;;;;;4932107;28;20501;-83
2022/06/20 11:58:04;;;;;;;2.70;1.00;;;17.10;99.90;;;;;;4931375;29;20538;-83
2022/06/20 12:00:43;;;;;;;4.30;1.00;;;16.90;99.90;;;;;;4931677;29;20405;-82
2022/06/20 12:03:30;;;;;;;3.85;0.95;;;16.90;99.90;;;;;;4933157;29;20398;-83
2022/06/20 12:06:09;;;;;;;5.45;0.95;;;16.80;99.90;;;;;;4931605;29;20392;-83
2022/06/20 12:08:38;;;;;;;3.30;1.17;;;17.10;99.90;;;;;;4933541;29;20489;-82
2022/06/20 12:11:36;;;;;;;4.43;1.02;;;17.40;99.90;;;;;;4931909;28;20398;-82
2022/06/20 12:14:30;;;;;;;4.20;1.00;;;17.50;99.90;;;;;;4934222;29;20411;-82
2022/06/20 12:17:14;;;;;;;3.92;0.80;;;17.60;99.90;;;;;;4931475;29;20407;-82
2022/06/20 12:25:53;;;;;;;4.22;0.90;;;17.60;99.90;;;;;;4946318;28;20462;-83
2022/06/20 12:28:23;;;;;;;4.72;1.00;;;17.70;99.90;;;;;;4928420;29;20398;-82
2022/06/20 12:31:18;;;;;;;3.78;1.00;;;17.80;99.90;;;;;;4925234;29;20826;-82
2022/06/20 12:33:59;;;;;;;4.53;0.70;;;17.80;99.90;;;;;;4936410;29;20429;-82
2022/06/20 12:36:35;;;;;;;3.33;0.80;;;17.80;99.90;;;;;;4941566;29;20394;-82
2022/06/20 12:39:09;;;;;;;2.75;0.75;;;17.80;99.90;;;;;;4930792;29;20390;-82
2022/06/20 12:41:50;;;;;;;3.22;0.95;;;17.70;99.90;;;;;;4939455;29;20413;-82
2022/06/20 12:44:35;;;;;;;2.47;1.05;;;17.50;99.90;;;;;;4948462;29;20401;-82
2022/06/20 12:47:30;;;;;;;2.83;0.80;;;17.40;99.90;;;;;;4949745;28;20395;-83
2022/06/20 12:50:16;;;;;;;3.85;1.00;;;17.30;99.90;;;;;;4943632;28;20489;-82
2022/06/20 12:53:30;;;;;;;4.83;1.00;;;17.20;99.90;;;;;;4934079;29;20444;-83
2022/06/20 12:56:07;;;;;;;3.08;0.77;;;17.20;99.90;;;;;;5015425;28;20401;-81
2022/06/20 12:58:52;;;;;;;3.38;0.80;;;17.10;99.90;;;;;;5031515;28;21001;-83
2022/06/20 13:01:46;;;;;;;3.10;0.95;;;17.00;99.90;;;;;;4976294;28;20412;-83
2022/06/20 13:04:34;;;;;;;4.47;1.15;;;17.00;99.90;;;;;;4951564;28;20927;-82
2022/06/20 13:07:37;;;;;;;3.17;0.90;;;17.10;99.90;;;;;;4946964;29;20959;-82
2022/06/20 13:10:25;;;;;;;4.10;1.00;;;17.10;99.90;;;;;;4949832;29;20855;-82
2022/06/20 13:13:26;;;;;;;3.35;0.80;;;17.00;99.90;;;;;;4946625;28;20535;-82
2022/06/20 13:16:17;;;;;;;4.22;1.00;;;17.10;99.90;;;;;;4944463;29;20404;-82
2022/06/20 13:19:03;;;;;;;4.22;0.93;;;17.10;99.90;;;;;;4959327;28;20408;-82
2022/06/20 13:21:52;;;;;;;3.53;0.75;;;17.10;99.90;;;;;;4951351;28;20466;-82
2022/06/20 13:24:48;;;;;;;3.83;1.00;;;17.00;99.90;;;;;;4951450;29;20863;-83
2022/06/20 13:27:43;;;;;;;2.40;0.80;;;17.10;99.90;;;;;;4927435;28;20613;-82
2022/06/20 13:30:46;;;;;;;4.22;0.80;;;17.10;99.90;;;;;;4939450;28;20437;-83
2022/06/20 13:33:51;;;;;;;3.10;1.17;;;17.10;99.90;;;;;;4937994;28;20398;-82
2022/06/20 13:36:25;;;;;;;2.90;0.97;;;17.10;99.90;;;;;;4916989;28;20452;-82
2022/06/20 13:39:03;;;;;;;3.40;0.90;;;17.10;99.90;;;;;;4933362;29;20417;-82
2022/06/20 13:41:42;;;;;;;3.40;1.00;;;17.10;99.90;;;;;;4939166;29;20908;-82
2022/06/20 13:44:34;;;;;;;3.22;1.00;;;17.10;99.90;;;;;;4947878;29;20400;-82
2022/06/20 13:47:22;;;;;;;4.70;0.90;;;17.10;99.90;;;;;;4932064;29;20452;-82
2022/06/20 13:49:59;;;;;;;3.25;0.90;;;17.30;99.90;;;;;;4933241;29;20840;-83
2022/06/20 13:52:29;;;;;;;4.57;1.05;;;17.40;99.90;;;;;;4942976;29;20398;-83
2022/06/20 13:55:15;;;;;;;4.20;1.30;;;17.50;99.90;;;;;;4936339;29;20407;-84
2022/06/20 13:57:56;;;;;;;4.90;1.05;;;17.60;99.90;;;;;;4951913;28;20450;-83
2022/06/20 14:00:27;;;;;;;3.90;1.08;;;17.60;99.90;;;;;;4950209;28;20403;-82
2022/06/20 14:03:32;;;;;;;4.40;1.10;;;17.50;99.90;;;;;;4933103;29;20772;-83
2022/06/20 14:06:14;;;;;;;4.05;1.00;;;17.50;99.90;;;;;;4931822;29;20398;-83
2022/06/20 14:08:47;;;;;;;3.45;0.80;;;17.40;99.90;;;;;;4949797;29;20420;-82
2022/06/20 14:11:43;;;;;;;4.82;0.90;;;17.40;99.90;;;;;;4947229;29;20526;-82
2022/06/20 14:14:21;;;;;;;5.10;1.00;;;17.40;99.90;;;;;;4931693;29;20398;-83